Terminal Aerodrome Forecast
Issued by NWS

Home | Current Version | Previous Version | Text Only | Print | Product List | Glossary On
Versions: 1 2 3 4 5 6 7 8 9 10 11 12
000
FTUS42 KMLB 261141
TAFISM
TAF
KISM 261141Z 2612/2712 12005KT P6SM SCT020 BKN250
     FM261500 12008KT P6SM VCSH SCT030 SCT250
      TEMPO 2615/2618 -SHRA BKN030 BKN050
     FM262200 10008KT P6SM FEW030 BKN250
     FM270200 12003KT P6SM FEW020 SCT250=

USA.gov is the U.S. government's official web portal to all federal, state and local government web resources and services.